Sample Charts Sidebar
> Live data! Your data is on the web site for you to access within minutes
 
> Detailed data is easily downloaded as data file, which can be opened with Excel
 
> Charts can be customised if necessary
  Chart 1
 

(A maximum of 50 rows are displayed here. Use "Export Data" to see all rows in the date range.)
Date Collected Temperature
(Celcius)
Wind-chill
(Celcius)
Wind Speed
(km/hr)
Gust
(km/hr)
Wind Direction
(degrees)
2019-12-09 09:00 6.9 6.5 1 2 22
2019-12-09 08:00 2.4 2.3 0 1 1
2019-12-09 07:00 2.3 2.2 1 2 46
2019-12-09 06:00 2.6 2.6 1 3 56
2019-12-09 05:00 3.0 3.1 1 2 6
2019-12-09 04:00 3.3 3.3 1 3 17
2019-12-09 03:00 3.5 3.5 0 2 45
2019-12-09 02:00 3.9 4.0 0 2 24
2019-12-09 01:00 5.0 5.1 0 1 23
2019-12-09 00:00 6.2 6.3 1 1 14
2019-12-08 23:00 6.9 6.9 0 2 286
2019-12-08 22:00 7.0 7.2 0 2 298
2019-12-08 21:00 7.9 7.8 2 4 147
2019-12-08 20:00 8.6 8.7 1 4 146
2019-12-08 19:00 9.6 9.5 2 6 115
2019-12-08 18:00 10.7 10.7 2 6 86
2019-12-08 17:00 12.1 12.1 2 5 89
2019-12-08 16:00 13.0 13.0 2 5 93
2019-12-08 15:00 14.0 13.2 4 10 109
2019-12-08 14:00 14.4 12.2 6 13 128
2019-12-08 13:00 15.2 13.9 4 11 101
2019-12-08 12:00 15.5 15.1 3 8 93
2019-12-08 11:00 14.4 13.5 3 10 124
2019-12-08 10:00 12.5 12.1 2 6 125
2019-12-08 09:00 7.6 7.0 1 3 334
2019-12-08 08:00 5.2 5.2 1 3 6
2019-12-08 07:00 3.2 2.8 1 6 143
2019-12-08 06:00 2.4 2.4 0 2 16
2019-12-08 05:00 3.0 3.1 0 2 10
2019-12-08 04:00 3.5 3.5 0 2 36
2019-12-08 03:00 4.4 4.4 0 2 325
2019-12-08 02:00 4.4 4.4 1 2 21
2019-12-08 01:00 4.7 4.8 0 2 3
2019-12-08 00:00 5.8 5.9 1 3 355
2019-12-07 23:00 7.0 7.0 0 2 23
2019-12-07 22:00 7.5 7.5 1 2 24
2019-12-07 21:00 6.8 6.9 0 1 16
2019-12-07 20:00 8.0 8.1 1 3 114
2019-12-07 19:00 8.8 8.5 2 7 167
2019-12-07 18:00 9.8 9.7 2 5 185
2019-12-07 17:00 10.3 9.6 3 11 209
2019-12-07 16:00 11.4 10.9 1 8 217
2019-12-07 15:00 12.1 10.2 5 11 204
2019-12-07 14:00 13.0 10.9 5 11 198
2019-12-07 13:00 13.5 11.2 5 15 176
2019-12-07 12:00 13.0 11.8 4 10 185
2019-12-07 11:00 12.4 11.8 3 8 200
2019-12-07 10:00 11.6 10.7 4 8 210
2019-12-07 09:00 10.7 9.7 3 7 200
2019-12-07 08:00 8.0 7.9 1 3 161